Terminal Aerodrome Forecast
Issued by NWS

Current Version | Previous Version | Text Only | Print | Product List | Glossary On
Versions: 1 2 3 4 5 6 7 8 9 10 11 12 13 14 15 16 17 18 19 20 21 22 23 24 25 26 27 28
786
FTUS41 KPHI 290345 AAB
TAFMIV
TAF AMD
KMIV 290345Z 2904/2924 05007KT P6SM OVC009
     FM291200 07009KT P6SM OVC012
      TEMPO 2916/2920 -RA=

USA.gov is the U.S. government's official web portal to all federal, state and local government web resources and services.